Time;durP1;ratioP1;P1;durP2;ratioP2;P2;SDS_P1;SDS_P2;PMS_P1;PMS_P2;Temp;Humidity;BMP_temperature;BMP_pressure;BME280_temperature;BME280_humidity;BME280_pressure;Samples;Min_cycle;Max_cycle;Signal;HPM_P1;HPM_P2
2021/06/23 00:00:26;;;;;;;2.60;2.05;;;19.30;57.80;;;;;;4954644;28;20035;-81
2021/06/23 00:02:52;;;;;;;2.78;1.63;;;19.20;57.70;;;;;;4943493;28;20059;-81
2021/06/23 00:05:18;;;;;;;3.08;1.80;;;19.30;57.80;;;;;;4933899;28;20050;-82
2021/06/23 00:07:44;;;;;;;2.25;1.80;;;19.20;57.90;;;;;;4958585;28;20046;-81
2021/06/23 00:10:12;;;;;;;2.20;1.77;;;19.20;57.90;;;;;;4949096;28;20058;-82
2021/06/23 00:12:39;;;;;;;3.17;1.98;;;19.20;58.00;;;;;;4958917;28;20129;-82
2021/06/23 00:15:07;;;;;;;2.83;1.80;;;19.20;58.00;;;;;;4972968;28;20026;-81
2021/06/23 00:17:39;;;;;;;3.25;2.00;;;19.10;58.00;;;;;;4949185;28;20403;-81
2021/06/23 00:20:34;;;;;;;2.72;1.80;;;19.10;58.00;;;;;;4968397;28;20046;-82
2021/06/23 00:23:02;;;;;;;2.38;1.85;;;19.10;58.00;;;;;;4955050;28;20109;-82
2021/06/23 00:25:29;;;;;;;3.05;2.00;;;19.00;58.10;;;;;;4966411;28;20030;-82
2021/06/23 00:27:55;;;;;;;2.47;1.80;;;19.00;58.10;;;;;;4958487;28;20503;-82
2021/06/23 00:30:21;;;;;;;3.70;1.90;;;19.00;58.10;;;;;;4988411;28;20031;-82
2021/06/23 00:32:48;;;;;;;2.83;2.00;;;19.00;58.20;;;;;;4970305;28;20125;-83
2021/06/23 00:35:14;;;;;;;2.53;1.88;;;19.00;58.30;;;;;;4959612;28;20451;-83
2021/06/23 00:37:41;;;;;;;2.60;1.80;;;19.00;58.30;;;;;;4962517;28;20061;-82
2021/06/23 00:40:09;;;;;;;2.95;2.13;;;18.90;58.30;;;;;;4972815;28;20108;-82
2021/06/23 00:42:35;;;;;;;2.47;1.88;;;18.90;58.40;;;;;;4995869;28;20026;-84
2021/06/23 00:45:06;;;;;;;2.67;2.08;;;18.90;58.40;;;;;;4958155;28;20125;-83
2021/06/23 00:47:33;;;;;;;2.33;1.73;;;18.80;58.40;;;;;;4949998;28;20045;-81
2021/06/23 00:50:07;;;;;;;3.97;2.15;;;18.80;58.40;;;;;;4978769;28;20038;-82
2021/06/23 00:52:54;;;;;;;2.80;1.83;;;18.80;58.50;;;;;;4981329;28;20104;-81
2021/06/23 00:55:34;;;;;;;2.70;1.73;;;18.80;58.50;;;;;;4977365;28;20031;-80
2021/06/23 00:58:02;;;;;;;3.13;1.88;;;18.70;58.40;;;;;;4962158;28;20045;-81
2021/06/23 01:00:31;;;;;;;3.47;1.95;;;18.70;58.50;;;;;;4960137;28;20501;-81
2021/06/23 01:03:00;;;;;;;2.40;1.85;;;18.70;58.50;;;;;;4962777;28;20034;-80
2021/06/23 01:05:28;;;;;;;3.13;2.08;;;18.70;58.60;;;;;;4954334;28;20031;-80
2021/06/23 01:07:55;;;;;;;2.75;2.05;;;18.70;58.60;;;;;;4944737;28;20077;-81
2021/06/23 01:10:22;;;;;;;2.40;1.95;;;18.70;58.70;;;;;;4965959;28;20033;-81
2021/06/23 01:12:57;;;;;;;2.63;1.73;;;18.60;58.70;;;;;;4965693;28;20037;-81
2021/06/23 01:15:24;;;;;;;2.08;1.67;;;18.60;58.80;;;;;;4977916;28;20109;-79
2021/06/23 01:17:51;;;;;;;2.45;1.92;;;18.60;58.80;;;;;;4988265;28;20030;-81
2021/06/23 01:20:17;;;;;;;3.45;1.92;;;18.50;58.70;;;;;;4962189;28;20035;-81
2021/06/23 01:22:45;;;;;;;2.45;1.92;;;18.60;58.80;;;;;;4961021;28;20030;-81
2021/06/23 01:25:15;;;;;;;3.30;1.95;;;18.50;58.80;;;;;;4965136;28;20113;-82
2021/06/23 01:27:44;;;;;;;3.08;1.65;;;18.50;58.90;;;;;;4994290;28;20407;-81
2021/06/23 01:30:13;;;;;;;2.10;1.90;;;18.50;58.90;;;;;;4953494;28;20424;-81
2021/06/23 01:32:46;;;;;;;2.40;1.70;;;18.50;59.00;;;;;;4968796;28;20018;-81
2021/06/23 01:35:15;;;;;;;1.75;1.50;;;18.50;59.00;;;;;;4970944;28;20031;-81
2021/06/23 01:37:42;;;;;;;1.90;1.60;;;18.50;59.00;;;;;;4987337;28;20038;-81
2021/06/23 01:40:08;;;;;;;2.10;1.90;;;18.40;59.00;;;;;;4974043;28;20034;-80
2021/06/23 01:42:36;;;;;;;2.95;1.85;;;18.40;59.00;;;;;;4945364;28;20031;-81
2021/06/23 01:45:03;;;;;;;2.63;1.75;;;18.40;59.10;;;;;;4980204;28;20085;-81
2021/06/23 01:47:29;;;;;;;3.13;1.90;;;18.40;59.10;;;;;;4951963;28;20483;-81
2021/06/23 01:49:55;;;;;;;3.00;1.98;;;18.30;59.10;;;;;;4992848;28;20088;-82
2021/06/23 01:52:22;;;;;;;2.08;1.77;;;18.30;59.20;;;;;;4964035;28;20129;-81
2021/06/23 01:54:50;;;;;;;2.00;1.80;;;18.30;59.20;;;;;;4960773;28;20023;-81
2021/06/23 01:57:16;;;;;;;2.17;1.70;;;18.30;59.20;;;;;;4962831;28;20031;-82
2021/06/23 01:59:46;;;;;;;2.83;1.90;;;18.30;59.30;;;;;;4961098;28;20395;-81
2021/06/23 02:02:48;;;;;;;1.95;1.80;;;18.30;59.30;;;;;;4978205;28;20048;-82
2021/06/23 02:05:41;;;;;;;2.35;1.75;;;18.30;59.30;;;;;;4975544;28;20084;-81
2021/06/23 02:08:16;;;;;;;2.92;1.75;;;18.20;59.30;;;;;;4973426;28;20189;-82
2021/06/23 02:11:13;;;;;;;2.55;1.70;;;18.20;59.40;;;;;;4972501;28;20117;-81
2021/06/23 02:14:00;;;;;;;2.00;1.45;;;18.20;59.50;;;;;;4945376;28;20023;-81
2021/06/23 02:16:37;;;;;;;2.47;1.70;;;18.20;59.40;;;;;;4989354;28;20444;-81
2021/06/23 02:19:07;;;;;;;2.47;1.75;;;18.20;59.40;;;;;;4955144;28;20042;-82
2021/06/23 02:22:10;;;;;;;2.10;1.83;;;18.10;59.40;;;;;;4972472;28;20054;-82
2021/06/23 02:24:36;;;;;;;2.92;1.73;;;18.10;60.10;;;;;;4960928;28;20049;-81
2021/06/23 02:27:12;;;;;;;2.60;1.70;;;18.10;59.50;;;;;;4957221;28;20057;-81
2021/06/23 02:29:39;;;;;;;2.38;1.60;;;18.10;59.50;;;;;;4981601;28;20373;-81
2021/06/23 02:32:06;;;;;;;3.17;1.90;;;18.00;59.50;;;;;;4970630;28;20043;-82
2021/06/23 02:34:35;;;;;;;2.20;1.83;;;18.00;59.50;;;;;;4969957;28;20077;-82
2021/06/23 02:37:16;;;;;;;1.77;1.67;;;18.00;59.50;;;;;;4949082;28;20037;-81
2021/06/23 02:39:43;;;;;;;2.63;1.80;;;18.00;59.50;;;;;;4954961;28;20034;-81
2021/06/23 02:42:10;;;;;;;2.70;2.05;;;18.00;59.60;;;;;;4943691;28;20574;-82
2021/06/23 02:44:38;;;;;;;2.08;1.60;;;18.00;59.60;;;;;;4967894;28;20407;-81
2021/06/23 02:47:04;;;;;;;2.35;1.58;;;18.00;59.60;;;;;;4969035;28;20234;-81
2021/06/23 02:49:48;;;;;;;3.25;1.80;;;18.00;59.60;;;;;;4961945;28;20228;-82
2021/06/23 02:52:16;;;;;;;2.60;1.88;;;17.90;59.60;;;;;;4979254;28;20121;-82
2021/06/23 02:54:43;;;;;;;2.42;1.83;;;17.90;59.60;;;;;;4960485;28;20093;-82
2021/06/23 02:57:26;;;;;;;2.65;1.80;;;17.90;59.70;;;;;;4984530;28;20471;-81
2021/06/23 02:59:54;;;;;;;2.08;1.70;;;17.90;59.60;;;;;;4950639;28;20483;-82
2021/06/23 03:02:20;;;;;;;2.75;1.80;;;17.90;59.70;;;;;;4991869;28;20033;-81
2021/06/23 03:04:48;;;;;;;1.92;1.73;;;17.90;59.80;;;;;;4960578;28;20034;-81
2021/06/23 03:07:18;;;;;;;1.80;1.50;;;17.90;59.80;;;;;;4956222;28;20038;-82
2021/06/23 03:10:08;;;;;;;2.13;1.52;;;17.90;59.80;;;;;;4975594;28;20030;-82
2021/06/23 03:12:53;;;;;;;2.38;1.83;;;17.90;59.90;;;;;;4989401;28;20513;-80
2021/06/23 03:15:34;;;;;;;1.88;1.65;;;17.80;59.70;;;;;;4954853;28;20034;-81
2021/06/23 03:18:08;;;;;;;2.17;1.75;;;17.80;59.80;;;;;;4965374;28;20043;-81
2021/06/23 03:20:35;;;;;;;2.00;1.60;;;17.80;59.80;;;;;;4952743;28;20109;-81
2021/06/23 03:23:01;;;;;;;2.45;1.75;;;17.80;59.90;;;;;;4974349;28;20038;-81
2021/06/23 03:25:27;;;;;;;2.33;1.63;;;17.80;59.90;;;;;;4932340;28;20039;-80
2021/06/23 03:27:58;;;;;;;3.03;1.80;;;17.80;59.90;;;;;;4953446;28;20050;-81
2021/06/23 03:30:26;;;;;;;2.92;1.67;;;17.80;60.00;;;;;;4970368;28;20557;-80
2021/06/23 03:32:52;;;;;;;2.38;1.80;;;17.80;60.00;;;;;;4984727;28;20034;-81
2021/06/23 03:35:20;;;;;;;3.30;2.05;;;17.70;59.90;;;;;;4982515;28;20030;-80
2021/06/23 03:37:51;;;;;;;2.92;1.90;;;17.70;59.90;;;;;;4960394;28;20057;-81
2021/06/23 03:40:19;;;;;;;1.80;1.63;;;17.70;60.00;;;;;;4955009;28;20026;-81
2021/06/23 03:42:45;;;;;;;2.45;1.80;;;17.70;60.00;;;;;;4962180;28;20038;-81
2021/06/23 03:45:13;;;;;;;2.28;1.70;;;17.70;60.00;;;;;;4957405;28;20027;-81
2021/06/23 03:47:40;;;;;;;2.17;1.75;;;17.70;60.00;;;;;;4951199;28;20039;-81
2021/06/23 03:50:10;;;;;;;2.70;1.90;;;17.70;60.00;;;;;;4971228;28;20042;-80
2021/06/23 03:52:37;;;;;;;1.75;1.65;;;17.60;60.00;;;;;;4958847;28;20161;-80
2021/06/23 03:55:05;;;;;;;3.08;2.08;;;17.60;60.00;;;;;;4959442;28;20053;-81
2021/06/23 03:57:35;;;;;;;1.92;1.60;;;17.60;60.00;;;;;;4958559;28;20034;-81
2021/06/23 04:00:04;;;;;;;2.85;1.70;;;17.60;60.00;;;;;;4965019;28;20035;-81
2021/06/23 04:02:33;;;;;;;1.95;1.80;;;17.60;60.00;;;;;;4966596;28;20030;-82
2021/06/23 04:04:59;;;;;;;2.53;1.98;;;17.60;60.10;;;;;;4970023;28;20472;-81
2021/06/23 04:07:29;;;;;;;3.30;2.08;;;17.60;60.10;;;;;;4964689;28;20039;-81
2021/06/23 04:09:56;;;;;;;2.92;1.90;;;17.60;60.10;;;;;;4962979;28;20062;-81
2021/06/23 04:12:31;;;;;;;2.53;1.80;;;17.60;60.10;;;;;;4954144;28;20661;-81
2021/06/23 04:14:57;;;;;;;3.45;2.10;;;17.60;60.10;;;;;;4994159;28;20101;-82
2021/06/23 04:17:23;;;;;;;2.67;1.80;;;17.60;60.10;;;;;;4961347;28;20031;-81
2021/06/23 04:19:49;;;;;;;2.08;1.67;;;17.50;60.10;;;;;;4982483;28;20039;-80
2021/06/23 04:22:31;;;;;;;2.20;1.67;;;17.50;60.10;;;;;;4974337;28;20030;-82
2021/06/23 04:25:08;;;;;;;;;;;17.50;60.10;;;;;;4964329;28;20089;-81
2021/06/23 04:27:34;;;;;;;1.98;1.65;;;17.50;60.00;;;;;;4957468;28;19965;-80
2021/06/23 04:29:59;;;;;;;2.28;1.50;;;17.50;60.00;;;;;;4974732;28;20066;-80
2021/06/23 04:32:26;;;;;;;1.88;1.67;;;17.50;60.10;;;;;;4966148;28;20434;-81
2021/06/23 04:35:05;;;;;;;2.28;1.60;;;17.50;60.20;;;;;;4967134;28;20042;-80
2021/06/23 04:37:35;;;;;;;1.92;1.58;;;17.50;60.20;;;;;;4948659;28;20046;-81
2021/06/23 04:40:05;;;;;;;3.60;1.60;;;17.40;60.20;;;;;;4978027;28;20034;-81
2021/06/23 04:42:33;;;;;;;2.20;1.70;;;17.50;60.30;;;;;;4962979;28;20061;-80
2021/06/23 04:44:58;;;;;;;1.98;1.58;;;17.40;60.20;;;;;;4968487;28;20050;-80
2021/06/23 04:47:26;;;;;;;2.28;1.70;;;17.40;60.30;;;;;;4946347;28;20069;-80
2021/06/23 04:49:52;;;;;;;2.80;1.95;;;17.40;60.30;;;;;;4970631;28;20042;-82
2021/06/23 04:52:21;;;;;;;2.10;1.73;;;17.40;60.30;;;;;;4947663;28;20081;-87
2021/06/23 04:54:47;;;;;;;2.80;2.00;;;17.40;60.30;;;;;;4978211;28;20030;-79
2021/06/23 04:57:13;;;;;;;2.30;1.60;;;17.40;60.30;;;;;;4961762;28;20088;-81
2021/06/23 04:59:39;;;;;;;2.65;1.70;;;17.40;60.40;;;;;;4979940;28;20860;-82
2021/06/23 05:02:05;;;;;;;2.45;1.60;;;17.40;60.30;;;;;;4984976;28;20035;-81
2021/06/23 05:04:33;;;;;;;2.45;1.52;;;17.40;60.40;;;;;;4975362;28;20138;-81
2021/06/23 05:07:04;;;;;;;3.10;1.65;;;17.40;61.00;;;;;;4956240;28;20066;-80
2021/06/23 05:09:30;;;;;;;2.60;1.83;;;17.40;60.40;;;;;;4959492;28;20121;-82
2021/06/23 05:11:57;;;;;;;2.53;1.63;;;17.40;60.40;;;;;;5000495;28;20026;-83
2021/06/23 05:14:22;;;;;;;3.22;1.77;;;17.40;60.40;;;;;;4989760;28;20022;-84
2021/06/23 05:16:50;;;;;;;3.22;1.52;;;17.40;60.40;;;;;;4961587;28;20034;-82
2021/06/23 05:19:17;;;;;;;1.85;1.65;;;17.40;60.40;;;;;;4983954;28;20113;-80
2021/06/23 05:21:43;;;;;;;2.80;1.88;;;17.40;60.50;;;;;;4979218;28;20030;-85
2021/06/23 05:24:09;;;;;;;2.58;1.33;;;17.40;60.50;;;;;;4956904;28;20031;-80
2021/06/23 05:26:35;;;;;;;2.72;1.67;;;17.40;60.50;;;;;;4977051;28;20440;-81
2021/06/23 05:29:01;;;;;;;2.58;1.60;;;17.30;60.50;;;;;;4958489;28;20114;-81
2021/06/23 05:31:27;;;;;;;2.38;1.73;;;17.30;60.50;;;;;;4963949;28;20039;-90
2021/06/23 05:33:53;;;;;;;2.08;1.77;;;17.40;60.50;;;;;;4962934;28;20093;-88
2021/06/23 05:36:19;;;;;;;4.90;2.10;;;17.30;60.50;;;;;;4959166;28;20038;-82
2021/06/23 05:38:46;;;;;;;2.65;1.73;;;17.30;60.50;;;;;;4973697;28;20033;-83
2021/06/23 05:41:12;;;;;;;1.92;1.42;;;17.30;60.60;;;;;;4959150;28;20057;-82
2021/06/23 05:43:37;;;;;;;2.65;1.70;;;17.40;60.60;;;;;;4962057;28;20058;-82
2021/06/23 05:46:03;;;;;;;2.83;1.90;;;17.30;60.60;;;;;;4961890;28;20030;-83
2021/06/23 05:48:29;;;;;;;1.83;1.63;;;17.30;61.20;;;;;;4968195;28;20039;-82
2021/06/23 05:50:55;;;;;;;3.10;1.73;;;17.30;60.60;;;;;;4972691;28;20039;-82
2021/06/23 05:53:21;;;;;;;3.53;1.88;;;17.30;60.60;;;;;;4967514;28;20486;-82
2021/06/23 05:55:47;;;;;;;2.55;1.80;;;17.30;60.70;;;;;;4988807;28;20037;-82
2021/06/23 05:58:12;;;;;;;2.17;1.90;;;17.40;60.70;;;;;;4982946;28;20022;-82
2021/06/23 06:00:38;;;;;;;2.42;1.73;;;17.30;60.80;;;;;;4994787;28;20109;-82
2021/06/23 06:03:05;;;;;;;3.10;1.90;;;17.30;60.80;;;;;;4947127;28;20022;-83
2021/06/23 06:05:32;;;;;;;1.83;1.50;;;17.40;60.80;;;;;;4977930;28;20092;-81
2021/06/23 06:07:58;;;;;;;1.77;1.45;;;17.40;60.80;;;;;;4988268;28;20117;-83
2021/06/23 06:10:24;;;;;;;2.33;1.63;;;17.40;60.80;;;;;;4964522;28;20118;-83
2021/06/23 06:12:50;;;;;;;2.42;1.70;;;17.30;60.80;;;;;;4978361;28;20030;-82
2021/06/23 06:15:16;;;;;;;2.22;1.85;;;17.40;60.80;;;;;;4946001;28;20050;-82
2021/06/23 06:17:41;;;;;;;2.58;1.80;;;17.40;60.80;;;;;;4977842;28;20529;-82
2021/06/23 06:20:08;;;;;;;2.55;1.60;;;17.40;60.80;;;;;;4977382;28;20035;-82
2021/06/23 06:22:34;;;;;;;2.10;1.55;;;17.40;60.80;;;;;;4977481;28;20026;-82
2021/06/23 06:25:01;;;;;;;3.78;1.85;;;17.50;60.90;;;;;;4977535;28;20447;-82
2021/06/23 06:27:27;;;;;;;2.72;1.75;;;17.50;60.90;;;;;;4957407;28;20101;-81
2021/06/23 06:29:53;;;;;;;1.67;1.58;;;17.50;60.90;;;;;;4961099;28;20035;-82
2021/06/23 06:32:18;;;;;;;3.60;1.70;;;17.50;60.90;;;;;;4957914;28;20085;-81
2021/06/23 06:34:44;;;;;;;3.70;1.60;;;17.50;60.90;;;;;;4963615;28;20460;-83
2021/06/23 06:37:10;;;;;;;2.85;1.50;;;17.50;60.90;;;;;;4974280;28;20035;-81
2021/06/23 06:39:36;;;;;;;2.25;1.50;;;17.60;60.90;;;;;;4974505;28;20038;-82
2021/06/23 06:42:04;;;;;;;2.40;1.70;;;17.60;60.90;;;;;;4991785;28;20039;-82
2021/06/23 06:44:31;;;;;;;2.58;1.40;;;17.60;60.90;;;;;;4937968;29;20035;-81
2021/06/23 06:46:58;;;;;;;2.25;1.40;;;17.60;60.80;;;;;;4986783;28;20551;-82
2021/06/23 06:49:27;;;;;;;1.75;1.27;;;17.70;60.90;;;;;;4941553;28;20031;-82
2021/06/23 06:51:57;;;;;;;1.90;1.33;;;17.70;60.90;;;;;;4975038;28;20554;-81
2021/06/23 06:54:23;;;;;;;1.92;1.35;;;17.70;60.90;;;;;;4957295;28;20031;-82
2021/06/23 06:56:49;;;;;;;1.67;1.50;;;17.70;60.80;;;;;;4957771;28;20037;-81
2021/06/23 06:59:15;;;;;;;3.13;1.50;;;17.70;60.80;;;;;;4973154;28;20027;-81
2021/06/23 07:01:40;;;;;;;1.58;1.40;;;17.70;60.80;;;;;;4941941;28;20031;-81
2021/06/23 07:04:06;;;;;;;2.45;1.30;;;17.70;60.80;;;;;;4957265;28;20290;-82
2021/06/23 07:06:32;;;;;;;1.85;1.33;;;17.80;60.80;;;;;;4941233;28;20041;-83
2021/06/23 07:08:59;;;;;;;3.25;1.60;;;17.80;60.80;;;;;;4973637;28;20051;-83
2021/06/23 07:11:25;;;;;;;3.47;1.40;;;17.80;60.80;;;;;;4925117;28;20050;-81
2021/06/23 07:13:51;;;;;;;1.90;1.25;;;17.90;60.80;;;;;;4974095;28;20046;-86
2021/06/23 07:16:17;;;;;;;1.80;1.30;;;17.80;60.70;;;;;;4977676;28;20035;-82
2021/06/23 07:18:45;;;;;;;1.30;1.20;;;17.90;60.70;;;;;;4959108;28;20110;-82
2021/06/23 07:21:17;;;;;;;1.63;1.27;;;17.90;60.70;;;;;;4975331;28;20031;-82
2021/06/23 07:23:43;;;;;;;2.08;1.40;;;17.90;60.70;;;;;;4973351;28;20093;-83
2021/06/23 07:26:09;;;;;;;1.40;1.20;;;18.00;60.70;;;;;;4976441;28;20151;-83
2021/06/23 07:28:53;;;;;;;3.05;1.85;;;18.00;60.60;;;;;;4960121;28;20110;-83
2021/06/23 07:36:41;;;;;;;1.15;1.05;;;18.00;60.50;;;;;;4978721;28;20134;-82
2021/06/23 07:39:12;;;;;;;1.30;0.88;;;18.10;60.60;;;;;;4993533;28;20018;-83
2021/06/23 07:41:39;;;;;;;2.45;1.30;;;18.10;60.60;;;;;;4956827;28;20440;-84
2021/06/23 07:44:07;;;;;;;2.40;1.30;;;18.10;60.50;;;;;;4976900;28;20029;-83
2021/06/23 07:46:37;;;;;;;2.35;1.15;;;18.20;60.50;;;;;;4973279;28;20122;-83
2021/06/23 07:49:06;;;;;;;2.13;1.30;;;18.20;60.50;;;;;;4962068;28;20435;-83
2021/06/23 07:51:49;;;;;;;2.83;1.23;;;18.20;60.40;;;;;;4992425;28;20035;-83
2021/06/23 07:54:19;;;;;;;2.95;1.20;;;18.20;60.40;;;;;;4992062;28;20023;-83
2021/06/23 08:10:26;;;;;;;1.58;1.08;;;18.30;60.20;;;;;;4959798;28;20035;-84
2021/06/23 08:12:54;;;;;;;1.20;1.10;;;18.30;60.20;;;;;;4958951;28;20039;-83
2021/06/23 08:15:25;;;;;;;1.13;1.02;;;18.40;60.20;;;;;;4960457;28;20031;-83
2021/06/23 08:17:52;;;;;;;1.35;1.20;;;18.40;60.30;;;;;;4992747;28;20125;-83
2021/06/23 08:20:17;;;;;;;2.80;1.25;;;18.40;60.20;;;;;;4960603;28;20506;-83
2021/06/23 08:22:43;;;;;;;2.75;1.27;;;18.50;60.20;;;;;;4976564;28;20035;-84
2021/06/23 08:25:10;;;;;;;1.45;1.08;;;18.50;60.10;;;;;;4959859;28;20023;-83
2021/06/23 08:27:35;;;;;;;2.00;1.20;;;18.60;60.10;;;;;;4991907;28;20054;-85
2021/06/23 08:30:05;;;;;;;1.33;1.23;;;18.60;60.00;;;;;;4959476;28;20118;-84
2021/06/23 08:32:31;;;;;;;2.70;1.15;;;18.70;60.00;;;;;;4974695;28;20030;-83
2021/06/23 08:34:56;;;;;;;2.55;1.30;;;18.70;60.00;;;;;;4973897;28;20018;-82
2021/06/23 08:37:22;;;;;;;2.67;1.48;;;18.80;59.90;;;;;;4967428;28;20035;-83
2021/06/23 08:39:48;;;;;;;2.47;1.30;;;18.80;59.90;;;;;;4977122;28;20089;-83
2021/06/23 08:42:14;;;;;;;2.00;1.33;;;18.90;59.80;;;;;;4990577;28;20026;-84
2021/06/23 08:44:39;;;;;;;2.75;1.33;;;18.90;59.80;;;;;;4981387;28;20483;-84
2021/06/23 08:47:06;;;;;;;3.72;1.58;;;19.00;59.70;;;;;;4958551;28;20078;-84
2021/06/23 08:49:33;;;;;;;2.22;1.35;;;19.00;59.70;;;;;;4950457;28;20018;-84
2021/06/23 08:52:00;;;;;;;2.42;1.17;;;19.00;59.60;;;;;;4959872;28;20061;-84
2021/06/23 08:54:27;;;;;;;2.13;1.20;;;19.10;59.70;;;;;;4963060;28;20029;-85
2021/06/23 08:56:54;;;;;;;1.60;1.30;;;19.20;59.60;;;;;;4984973;28;20041;-84
2021/06/23 08:59:19;;;;;;;2.92;1.25;;;19.20;59.50;;;;;;4996232;28;20423;-85
2021/06/23 09:01:46;;;;;;;1.90;1.25;;;19.20;59.50;;;;;;4979247;28;20065;-85
2021/06/23 09:04:15;;;;;;;2.05;1.50;;;19.30;59.50;;;;;;4959981;28;20026;-85
2021/06/23 09:06:58;;;;;;;1.52;1.42;;;19.30;59.40;;;;;;4986389;28;20058;-84
2021/06/23 09:09:35;;;;;;;2.60;1.33;;;19.40;59.50;;;;;;4976377;28;20088;-84
2021/06/23 09:12:04;;;;;;;1.70;1.30;;;19.40;59.40;;;;;;4963353;28;20026;-85
2021/06/23 09:14:32;;;;;;;1.67;1.20;;;19.40;59.30;;;;;;4982962;28;20364;-86
2021/06/23 09:17:15;;;;;;;2.33;1.00;;;19.50;59.30;;;;;;4960402;28;20066;-85
2021/06/23 09:19:55;;;;;;;3.05;1.25;;;19.50;59.30;;;;;;4975426;28;20030;-85
2021/06/23 09:22:42;;;;;;;2.22;1.35;;;19.60;59.20;;;;;;4979258;28;20406;-85
2021/06/23 09:25:10;;;;;;;2.97;1.50;;;19.70;59.30;;;;;;4996421;28;20033;-85
2021/06/23 09:27:44;;;;;;;2.33;1.10;;;19.70;59.10;;;;;;4962319;28;20061;-85
2021/06/23 09:30:24;;;;;;;2.45;1.40;;;19.70;59.00;;;;;;4964040;28;20486;-85
2021/06/23 09:33:27;;;;;;;1.52;1.17;;;19.80;59.10;;;;;;4979202;28;20036;-85
2021/06/23 09:35:55;;;;;;;1.75;1.17;;;19.80;59.10;;;;;;4952912;28;20371;-84
2021/06/23 09:38:42;;;;;;;1.88;1.00;;;19.90;58.90;;;;;;4978649;28;20030;-85
2021/06/23 09:41:37;;;;;;;3.38;1.40;;;19.90;59.00;;;;;;4988921;28;20431;-83
2021/06/23 09:44:07;;;;;;;1.65;1.10;;;20.00;58.90;;;;;;4966381;28;20409;-84
2021/06/23 09:46:35;;;;;;;1.73;1.10;;;20.00;58.70;;;;;;4994718;28;20034;-84
2021/06/23 09:49:14;;;;;;;2.90;1.15;;;20.10;58.60;;;;;;4978705;28;20026;-85
2021/06/23 09:51:54;;;;;;;1.90;1.17;;;20.20;58.70;;;;;;4962100;28;20531;-84
2021/06/23 09:54:24;;;;;;;1.10;1.00;;;20.30;58.60;;;;;;4945568;28;20030;-83
2021/06/23 09:56:51;;;;;;;1.60;1.00;;;20.40;58.40;;;;;;4994532;28;20403;-84
2021/06/23 09:59:36;;;;;;;2.03;1.40;;;20.40;58.30;;;;;;4994599;28;20106;-83
2021/06/23 10:02:03;;;;;;;1.20;0.93;;;20.50;58.30;;;;;;4962286;28;20036;-84
2021/06/23 10:04:39;;;;;;;1.58;1.10;;;20.60;58.10;;;;;;4960594;28;20034;-89
2021/06/23 10:07:05;;;;;;;1.30;0.93;;;20.70;58.10;;;;;;4977635;28;20117;-85
2021/06/23 10:13:41;;;;;;;;;;;;;;;;;;;;;
2021/06/23 10:17:23;;;;;;;1.60;0.95;;;20.90;57.80;;;;;;4975862;28;20108;-87
2021/06/23 10:21:07;;;;;;;;;;;;;;;;;;;;;
2021/06/23 10:28:34;;;;;;;1.17;1.00;;;21.20;57.70;;;;;;4884133;29;20100;-88
2021/06/23 10:31:40;;;;;;;1.73;1.10;;;21.20;57.60;;;;;;4864798;29;20037;-86
2021/06/23 10:39:04;;;;;;;2.17;1.17;;;21.30;57.50;;;;;;4799338;29;20053;-89
2021/06/23 10:41:43;;;;;;;1.30;0.85;;;21.40;57.50;;;;;;4798011;29;20046;-88
2021/06/23 11:00:33;;;;;;;2.40;1.10;;;21.80;57.20;;;;;;4837221;29;20092;-90
2021/06/23 11:03:29;;;;;;;1.20;0.95;;;21.90;57.10;;;;;;4824100;29;20839;-88
2021/06/23 11:06:20;;;;;;;1.40;0.80;;;21.90;57.10;;;;;;4793971;29;20050;-88
2021/06/23 11:46:02;;;;;;;1.38;1.10;;;22.60;56.10;;;;;;4847104;29;20154;-86
2021/06/23 11:48:31;;;;;;;1.00;1.00;;;22.70;55.90;;;;;;4858833;29;20047;-89
2021/06/23 11:50:57;;;;;;;1.42;1.20;;;22.70;55.90;;;;;;4939928;28;20035;-88
2021/06/23 11:53:22;;;;;;;2.25;1.13;;;22.80;55.80;;;;;;4956195;28;20098;-86
2021/06/23 11:55:52;;;;;;;2.28;1.20;;;22.90;55.70;;;;;;4957098;28;20062;-86
2021/06/23 11:58:19;;;;;;;1.70;1.20;;;22.90;55.60;;;;;;4945882;29;20031;-85
2021/06/23 12:00:45;;;;;;;2.22;1.45;;;22.90;55.50;;;;;;4958190;28;20023;-86
2021/06/23 12:03:14;;;;;;;2.50;1.40;;;23.00;55.40;;;;;;4948199;28;20046;-84
2021/06/23 12:05:40;;;;;;;1.70;1.10;;;23.10;55.30;;;;;;4957420;28;20039;-82
2021/06/23 12:08:06;;;;;;;1.45;1.20;;;23.10;55.20;;;;;;4947027;28;20073;-87
2021/06/23 12:10:33;;;;;;;1.30;1.02;;;23.20;55.20;;;;;;4940811;28;20050;-87
2021/06/23 12:13:00;;;;;;;2.50;1.20;;;23.20;55.10;;;;;;4943793;28;20097;-87
2021/06/23 12:15:27;;;;;;;2.25;1.08;;;23.20;55.00;;;;;;4941135;28;20022;-85
2021/06/23 12:17:56;;;;;;;1.92;1.10;;;23.30;55.00;;;;;;4951173;28;20089;-87
2021/06/23 12:20:24;;;;;;;1.63;1.08;;;23.30;54.90;;;;;;4964652;28;20026;-87
2021/06/23 12:22:57;;;;;;;1.77;1.02;;;23.40;54.80;;;;;;4979360;28;20480;-87
2021/06/23 12:25:25;;;;;;;2.20;1.35;;;23.40;54.80;;;;;;4986274;28;20023;-88
2021/06/23 12:27:55;;;;;;;1.60;1.10;;;23.40;54.70;;;;;;4958386;28;20031;-88
2021/06/23 12:30:25;;;;;;;2.00;1.13;;;23.50;54.70;;;;;;4944721;28;20030;-88
2021/06/23 12:32:51;;;;;;;1.60;1.00;;;23.50;55.00;;;;;;4944766;28;20034;-88
2021/06/23 12:35:17;;;;;;;2.33;1.05;;;23.50;54.60;;;;;;4942989;29;20063;-88
2021/06/23 12:37:43;;;;;;;1.13;1.00;;;23.60;54.60;;;;;;4954783;28;20128;-88
2021/06/23 12:40:10;;;;;;;1.75;1.10;;;23.60;54.60;;;;;;4963648;28;20050;-88
2021/06/23 12:42:35;;;;;;;1.55;1.10;;;23.70;54.60;;;;;;4944473;28;20082;-87
2021/06/23 12:45:02;;;;;;;3.17;1.30;;;23.70;54.60;;;;;;4944152;28;20031;-86
2021/06/23 12:47:28;;;;;;;2.72;1.25;;;23.70;54.50;;;;;;4944924;28;20030;-90
2021/06/23 12:49:53;;;;;;;1.83;1.15;;;23.70;54.50;;;;;;4972966;28;20125;-89
2021/06/23 12:52:19;;;;;;;3.25;1.40;;;23.80;54.50;;;;;;4961672;28;20422;-86
2021/06/23 12:54:45;;;;;;;1.80;1.30;;;23.80;54.50;;;;;;4960589;28;20035;-87
2021/06/23 12:57:11;;;;;;;1.60;1.05;;;23.80;54.50;;;;;;4928815;28;20034;-87
2021/06/23 12:59:37;;;;;;;2.10;1.25;;;23.80;54.40;;;;;;4924984;29;20031;-85
2021/06/23 13:02:05;;;;;;;2.05;1.20;;;23.90;54.40;;;;;;4943400;28;20575;-90
2021/06/23 13:04:31;;;;;;;1.55;1.20;;;23.90;54.40;;;;;;4959600;28;20467;-83
2021/06/23 13:06:56;;;;;;;2.92;1.23;;;23.90;54.40;;;;;;4956215;29;20042;-85
2021/06/23 13:09:22;;;;;;;1.80;1.20;;;23.90;54.30;;;;;;4927760;28;20031;-84
2021/06/23 13:11:48;;;;;;;2.33;1.23;;;24.00;54.30;;;;;;4946622;28;20026;-86
2021/06/23 13:14:14;;;;;;;2.08;1.20;;;24.00;54.30;;;;;;4967367;28;20038;-85
2021/06/23 13:16:40;;;;;;;2.22;1.13;;;24.00;54.30;;;;;;4943928;28;20027;-85
2021/06/23 13:19:06;;;;;;;1.42;0.95;;;24.00;54.30;;;;;;4943498;28;20038;-84
2021/06/23 13:21:32;;;;;;;1.92;1.10;;;24.10;54.30;;;;;;4944322;28;20372;-86
2021/06/23 13:23:58;;;;;;;1.20;0.90;;;24.10;54.30;;;;;;4943942;28;20162;-85
2021/06/23 13:26:25;;;;;;;1.58;1.15;;;24.10;54.20;;;;;;4943537;28;20051;-85
2021/06/23 13:28:51;;;;;;;1.85;1.15;;;24.10;54.20;;;;;;4959846;28;20129;-83
2021/06/23 13:31:17;;;;;;;1.20;1.00;;;24.10;54.20;;;;;;4972361;28;20109;-84
2021/06/23 13:33:44;;;;;;;1.40;1.00;;;24.20;54.90;;;;;;4959036;28;20492;-83
2021/06/23 13:36:10;;;;;;;1.60;1.20;;;24.20;54.30;;;;;;4959412;28;20387;-83
2021/06/23 13:38:36;;;;;;;1.88;1.10;;;24.20;54.30;;;;;;4974904;28;20035;-84
2021/06/23 13:41:03;;;;;;;1.67;1.20;;;24.20;54.30;;;;;;4957836;28;20051;-83
2021/06/23 13:43:30;;;;;;;2.70;1.25;;;24.20;54.30;;;;;;4927244;28;20117;-84
2021/06/23 13:45:56;;;;;;;1.60;1.20;;;24.20;54.30;;;;;;4958900;28;20023;-84
2021/06/23 13:48:22;;;;;;;2.05;1.02;;;24.20;54.30;;;;;;4942247;28;20034;-84
2021/06/23 13:50:49;;;;;;;2.40;1.15;;;24.20;54.30;;;;;;4958739;28;20033;-84
2021/06/23 13:53:15;;;;;;;2.17;1.15;;;24.20;54.30;;;;;;4975151;28;20085;-84
2021/06/23 13:55:42;;;;;;;1.83;1.05;;;24.20;54.20;;;;;;4958601;28;20014;-84
2021/06/23 13:58:11;;;;;;;2.15;1.10;;;24.20;54.20;;;;;;4974997;28;20110;-84
2021/06/23 14:00:40;;;;;;;2.17;1.02;;;24.20;54.20;;;;;;4975643;28;20089;-83
2021/06/23 14:03:06;;;;;;;1.33;0.93;;;24.20;54.20;;;;;;4957724;28;20030;-82
2021/06/23 14:05:33;;;;;;;2.38;1.27;;;24.20;54.20;;;;;;4975439;28;20478;-83
2021/06/23 14:08:00;;;;;;;2.83;1.20;;;24.20;54.20;;;;;;4957790;28;20038;-82
2021/06/23 14:10:27;;;;;;;2.28;1.30;;;24.20;54.20;;;;;;4958094;28;20039;-83
2021/06/23 14:12:53;;;;;;;2.42;1.40;;;24.20;54.30;;;;;;4938313;28;20023;-82
2021/06/23 14:15:18;;;;;;;2.10;1.25;;;24.20;54.20;;;;;;4958719;28;20031;-82
2021/06/23 14:17:44;;;;;;;2.75;1.40;;;24.10;54.10;;;;;;4941954;28;20035;-84
2021/06/23 14:20:13;;;;;;;3.03;1.20;;;24.20;54.20;;;;;;4974574;28;20480;-83
2021/06/23 14:22:39;;;;;;;2.13;1.10;;;24.10;54.10;;;;;;4958103;28;20023;-82
2021/06/23 14:25:08;;;;;;;2.45;1.20;;;24.10;54.20;;;;;;4957686;28;20167;-83
2021/06/23 14:27:34;;;;;;;2.08;1.20;;;24.10;54.20;;;;;;4958032;28;20489;-84
2021/06/23 14:30:01;;;;;;;2.63;1.40;;;24.10;54.20;;;;;;4941991;28;20057;-83